This is the latest recevied weather packets stored in our database for station/object Oberstadn. If no packets are shown the sender has not sent any weather packets the latest 10 day(s).
| Time | Temp. | Humidity | Pressure | Rain* | Wind** | Luminosity | Snow |
|---|---|---|---|---|---|---|---|
| 1777708931 | 15.56° C | 53% | 1023.6 hPa | 0 mm | - | - | - |
| 1777707130 | 13.33° C | 60% | 1023.8 hPa | 0 mm | - | - | - |
| 1777705333 | 11.67° C | 65% | 1024 hPa | 0 mm | - | - | - |
| 1777703532 | 9.44° C | 76% | 1024.1 hPa | 0 mm | - | - | - |
| 1777701731 | 6.67° C | 82% | 1024.1 hPa | 0 mm | - | - | - |
| 1777699931 | 3.33° C | 88% | 1023.9 hPa | 0 mm | - | - | - |
| 1777698131 | 1.11° C | 89% | 1024 hPa | 0 mm | - | - | - |
| 1777696331 | 0° C | 86% | 1024 hPa | 0 mm | - | - | - |
| 1777694533 | 0.56° C | 86% | 1024 hPa | 0 mm | - | - | - |
| 1777692731 | 1.11° C | 85% | 1024 hPa | 0 mm | - | - | - |
| 1777690931 | 1.11° C | 85% | 1023.8 hPa | 0 mm | - | - | - |
| 1777689134 | 1.67° C | 85% | 1023.9 hPa | 0 mm | - | - | - |
| 1777687332 | 1.67° C | 84% | 1024 hPa | 0 mm | - | - | - |
| 1777685531 | 1.67° C | 85% | 1024.2 hPa | 0 mm | - | - | - |
| 1777683731 | 1.67° C | 81% | 1024.4 hPa | 0 mm | - | - | - |
| 1777681929 | 2.78° C | 82% | 1024.5 hPa | 0 mm | - | - | - |
| 1777680129 | 2.78° C | 79% | 1024.6 hPa | 0 mm | - | - | - |
| 1777678330 | 3.89° C | 79% | 1025 hPa | 0 mm | - | - | - |
| 1777676530 | 4.44° C | 74% | 1025 hPa | 0 mm | - | - | - |
| 1777674730 | 5.56° C | 74% | 1025.1 hPa | 0 mm | - | - | - |
| 1777671130 | 8.33° C | 66% | 1025 hPa | 0 mm | - | - | - |
| 1777669330 | 9.44° C | 63% | 1024.8 hPa | 0 mm | - | - | - |
| 1777667529 | 11.67° C | 52% | 1025 hPa | 0 mm | - | - | - |
| 1777665732 | 13.89° C | 48% | 1024.7 hPa | 0 mm | - | - | - |
| 1777663929 | 15° C | 44% | 1024.5 hPa | 0 mm | - | - | - |
* Rain since midnight (hover to see other rain measurements)
** Current wind speed in m/s (hover to see current wind gust speed)